sensor_id;sensor_type;location;lat;lon;timestamp;pressure;altitude;pressure_sealevel;temperature;humidity
58761;BME280;44529;47.464;19.014;2023-05-07T00:00:14;100231.09;;;15.22;100.00
58761;BME280;44529;47.464;19.014;2023-05-07T00:03:18;100225.53;;;15.18;100.00
58761;BME280;44529;47.464;19.014;2023-05-07T00:06:21;100239.38;;;15.13;100.00
58761;BME280;44529;47.464;19.014;2023-05-07T00:09:23;100231.69;;;14.90;100.00
58761;BME280;44529;47.464;19.014;2023-05-07T00:12:26;100238.06;;;14.82;100.00
58761;BME280;44529;47.464;19.014;2023-05-07T00:15:28;100231.69;;;14.90;100.00
58761;BME280;44529;47.464;19.014;2023-05-07T00:18:30;100236.91;;;14.83;100.00
58761;BME280;44529;47.464;19.014;2023-05-07T00:21:33;100237.13;;;14.78;100.00
58761;BME280;44529;47.464;19.014;2023-05-07T00:24:35;100235.78;;;14.84;100.00
58761;BME280;44529;47.464;19.014;2023-05-07T00:27:37;100241.91;;;14.81;100.00
58761;BME280;44529;47.464;19.014;2023-05-07T00:30:40;100234.53;;;14.82;100.00
58761;BME280;44529;47.464;19.014;2023-05-07T00:33:42;100238.62;;;14.76;100.00
58761;BME280;44529;47.464;19.014;2023-05-07T00:36:44;100244.37;;;14.74;100.00
58761;BME280;44529;47.464;19.014;2023-05-07T00:39:47;100243.59;;;14.74;100.00
58761;BME280;44529;47.464;19.014;2023-05-07T00:42:49;100240.63;;;14.67;100.00
58761;BME280;44529;47.464;19.014;2023-05-07T00:45:52;100238.25;;;14.65;100.00
58761;BME280;44529;47.464;19.014;2023-05-07T00:48:54;100242.53;;;14.54;100.00
58761;BME280;44529;47.464;19.014;2023-05-07T00:51:56;100236.53;;;14.60;100.00
58761;BME280;44529;47.464;19.014;2023-05-07T00:55:04;100243.47;;;14.58;100.00
58761;BME280;44529;47.464;19.014;2023-05-07T00:58:08;100245.97;;;14.51;100.00
58761;BME280;44529;47.464;19.014;2023-05-07T01:01:10;100253.19;;;14.47;100.00
58761;BME280;44529;47.464;19.014;2023-05-07T01:04:13;100251.13;;;14.44;100.00
58761;BME280;44529;47.464;19.014;2023-05-07T01:07:15;100257.00;;;14.33;100.00
58761;BME280;44529;47.464;19.014;2023-05-07T01:10:18;100247.91;;;14.29;100.00
58761;BME280;44529;47.464;19.014;2023-05-07T01:13:21;100249.47;;;14.18;100.00
58761;BME280;44529;47.464;19.014;2023-05-07T01:16:24;100251.50;;;14.21;100.00
58761;BME280;44529;47.464;19.014;2023-05-07T01:19:28;100249.78;;;14.17;100.00
58761;BME280;44529;47.464;19.014;2023-05-07T01:22:35;100252.84;;;14.15;100.00
58761;BME280;44529;47.464;19.014;2023-05-07T01:25:39;100252.66;;;14.20;100.00
58761;BME280;44529;47.464;19.014;2023-05-07T01:28:42;100251.72;;;14.16;100.00
58761;BME280;44529;47.464;19.014;2023-05-07T01:31:46;100254.88;;;14.06;100.00
58761;BME280;44529;47.464;19.014;2023-05-07T01:34:50;100259.62;;;14.09;100.00
58761;BME280;44529;47.464;19.014;2023-05-07T01:37:53;100254.97;;;14.09;100.00
58761;BME280;44529;47.464;19.014;2023-05-07T01:40:56;100261.88;;;14.07;100.00
58761;BME280;44529;47.464;19.014;2023-05-07T01:44:00;100258.25;;;14.03;100.00
58761;BME280;44529;47.464;19.014;2023-05-07T01:47:03;100259.12;;;13.95;100.00
58761;BME280;44529;47.464;19.014;2023-05-07T01:50:07;100261.94;;;13.86;100.00
58761;BME280;44529;47.464;19.014;2023-05-07T01:53:11;100258.59;;;13.80;100.00
58761;BME280;44529;47.464;19.014;2023-05-07T01:56:13;100265.62;;;13.81;100.00
58761;BME280;44529;47.464;19.014;2023-05-07T01:59:16;100254.22;;;13.88;100.00
58761;BME280;44529;47.464;19.014;2023-05-07T02:02:19;100244.34;;;13.83;100.00
58761;BME280;44529;47.464;19.014;2023-05-07T02:05:22;100242.94;;;13.77;100.00
58761;BME280;44529;47.464;19.014;2023-05-07T02:08:26;100242.69;;;13.70;100.00
58761;BME280;44529;47.464;19.014;2023-05-07T02:11:29;100244.69;;;13.61;100.00
58761;BME280;44529;47.464;19.014;2023-05-07T02:14:31;100246.63;;;13.61;100.00
58761;BME280;44529;47.464;19.014;2023-05-07T02:17:33;100242.62;;;13.58;100.00
58761;BME280;44529;47.464;19.014;2023-05-07T02:20:35;100239.25;;;13.61;100.00
58761;BME280;44529;47.464;19.014;2023-05-07T02:23:38;100234.97;;;13.60;100.00
58761;BME280;44529;47.464;19.014;2023-05-07T02:26:41;100236.47;;;13.49;100.00
58761;BME280;44529;47.464;19.014;2023-05-07T02:29:43;100232.16;;;13.48;100.00
58761;BME280;44529;47.464;19.014;2023-05-07T02:32:45;100233.94;;;13.44;100.00
58761;BME280;44529;47.464;19.014;2023-05-07T02:35:48;100236.66;;;13.44;100.00
58761;BME280;44529;47.464;19.014;2023-05-07T02:38:50;100228.44;;;13.32;100.00
58761;BME280;44529;47.464;19.014;2023-05-07T02:41:53;100219.50;;;13.31;100.00
58761;BME280;44529;47.464;19.014;2023-05-07T02:44:55;100228.16;;;13.24;100.00
58761;BME280;44529;47.464;19.014;2023-05-07T02:47:57;100230.09;;;13.24;100.00
58761;BME280;44529;47.464;19.014;2023-05-07T02:51:00;100230.25;;;13.19;100.00
58761;BME280;44529;47.464;19.014;2023-05-07T02:54:03;100232.34;;;13.13;100.00
58761;BME280;44529;47.464;19.014;2023-05-07T02:57:06;100238.28;;;13.15;100.00
58761;BME280;44529;47.464;19.014;2023-05-07T03:00:16;100241.91;;;13.19;100.00
58761;BME280;44529;47.464;19.014;2023-05-07T03:03:20;100232.84;;;13.15;100.00
58761;BME280;44529;47.464;19.014;2023-05-07T03:06:23;100235.56;;;13.15;100.00
58761;BME280;44529;47.464;19.014;2023-05-07T03:09:25;100238.47;;;13.10;100.00
58761;BME280;44529;47.464;19.014;2023-05-07T03:12:28;100233.66;;;13.07;100.00
58761;BME280;44529;47.464;19.014;2023-05-07T03:15:30;100238.62;;;13.05;100.00
58761;BME280;44529;47.464;19.014;2023-05-07T03:18:32;100234.66;;;13.02;100.00
58761;BME280;44529;47.464;19.014;2023-05-07T03:21:35;100236.91;;;13.00;100.00
58761;BME280;44529;47.464;19.014;2023-05-07T03:24:37;100242.19;;;12.97;100.00
58761;BME280;44529;47.464;19.014;2023-05-07T03:27:40;100233.72;;;12.98;100.00
58761;BME280;44529;47.464;19.014;2023-05-07T03:30:43;100238.22;;;12.94;100.00
58761;BME280;44529;47.464;19.014;2023-05-07T03:33:54;100232.94;;;12.98;100.00
58761;BME280;44529;47.464;19.014;2023-05-07T03:36:58;100236.59;;;13.02;100.00
58761;BME280;44529;47.464;19.014;2023-05-07T03:40:00;100238.09;;;12.91;100.00
58761;BME280;44529;47.464;19.014;2023-05-07T03:43:04;100228.62;;;12.97;100.00
58761;BME280;44529;47.464;19.014;2023-05-07T03:46:08;100232.94;;;12.98;100.00
58761;BME280;44529;47.464;19.014;2023-05-07T03:49:11;100239.03;;;12.95;100.00
58761;BME280;44529;47.464;19.014;2023-05-07T03:52:13;100248.09;;;12.99;100.00
58761;BME280;44529;47.464;19.014;2023-05-07T03:55:16;100243.50;;;12.91;100.00
58761;BME280;44529;47.464;19.014;2023-05-07T03:58:22;100245.31;;;12.78;100.00
58761;BME280;44529;47.464;19.014;2023-05-07T04:01:25;100248.22;;;12.73;100.00
58761;BME280;44529;47.464;19.014;2023-05-07T04:04:27;100250.91;;;12.82;100.00
58761;BME280;44529;47.464;19.014;2023-05-07T04:07:31;100256.97;;;12.79;100.00
58761;BME280;44529;47.464;19.014;2023-05-07T04:10:34;100250.69;;;12.87;100.00
58761;BME280;44529;47.464;19.014;2023-05-07T04:13:37;100258.03;;;12.86;100.00
58761;BME280;44529;47.464;19.014;2023-05-07T04:16:40;100255.00;;;12.88;100.00
58761;BME280;44529;47.464;19.014;2023-05-07T04:19:43;100251.38;;;12.75;100.00
58761;BME280;44529;47.464;19.014;2023-05-07T04:22:48;100262.84;;;12.81;100.00
58761;BME280;44529;47.464;19.014;2023-05-07T04:25:51;100264.47;;;12.82;100.00
58761;BME280;44529;47.464;19.014;2023-05-07T04:28:54;100272.78;;;12.77;100.00
58761;BME280;44529;47.464;19.014;2023-05-07T04:31:56;100263.97;;;12.80;100.00
58761;BME280;44529;47.464;19.014;2023-05-07T04:34:59;100275.78;;;12.84;100.00
58761;BME280;44529;47.464;19.014;2023-05-07T04:38:01;100276.72;;;12.88;100.00
58761;BME280;44529;47.464;19.014;2023-05-07T04:41:05;100278.63;;;12.87;100.00
58761;BME280;44529;47.464;19.014;2023-05-07T04:44:08;100278.63;;;12.96;100.00
58761;BME280;44529;47.464;19.014;2023-05-07T04:47:12;100283.19;;;13.04;100.00
58761;BME280;44529;47.464;19.014;2023-05-07T04:50:14;100280.75;;;13.11;100.00
58761;BME280;44529;47.464;19.014;2023-05-07T04:53:17;100282.84;;;13.14;100.00
58761;BME280;44529;47.464;19.014;2023-05-07T04:56:20;100292.44;;;13.20;100.00
58761;BME280;44529;47.464;19.014;2023-05-07T04:59:23;100284.22;;;13.29;100.00
58761;BME280;44529;47.464;19.014;2023-05-07T05:02:25;100276.00;;;13.38;100.00
58761;BME280;44529;47.464;19.014;2023-05-07T05:05:28;100281.59;;;13.41;100.00
58761;BME280;44529;47.464;19.014;2023-05-07T05:08:31;100280.53;;;13.54;100.00
58761;BME280;44529;47.464;19.014;2023-05-07T05:11:33;100283.19;;;13.63;100.00
58761;BME280;44529;47.464;19.014;2023-05-07T05:14:36;100285.38;;;13.70;100.00
58761;BME280;44529;47.464;19.014;2023-05-07T05:17:39;100283.06;;;13.80;100.00
58761;BME280;44529;47.464;19.014;2023-05-07T05:20:41;100288.56;;;13.93;100.00
58761;BME280;44529;47.464;19.014;2023-05-07T05:23:46;100287.69;;;14.01;100.00
58761;BME280;44529;47.464;19.014;2023-05-07T05:26:49;100288.53;;;14.14;100.00
58761;BME280;44529;47.464;19.014;2023-05-07T05:29:52;100280.44;;;14.26;100.00
58761;BME280;44529;47.464;19.014;2023-05-07T05:32:54;100286.25;;;14.36;100.00
58761;BME280;44529;47.464;19.014;2023-05-07T05:35:57;100285.50;;;14.48;100.00
58761;BME280;44529;47.464;19.014;2023-05-07T05:38:59;100275.19;;;14.54;100.00
58761;BME280;44529;47.464;19.014;2023-05-07T05:42:02;100278.50;;;14.59;100.00
58761;BME280;44529;47.464;19.014;2023-05-07T05:45:08;100280.56;;;14.62;100.00
58761;BME280;44529;47.464;19.014;2023-05-07T05:48:11;100280.31;;;14.68;100.00
58761;BME280;44529;47.464;19.014;2023-05-07T05:51:13;100274.66;;;14.73;100.00
58761;BME280;44529;47.464;19.014;2023-05-07T05:54:16;100278.97;;;14.74;100.00
58761;BME280;44529;47.464;19.014;2023-05-07T05:57:18;100277.31;;;14.81;100.00
58761;BME280;44529;47.464;19.014;2023-05-07T06:00:21;100277.84;;;14.87;100.00
58761;BME280;44529;47.464;19.014;2023-05-07T06:03:31;100270.59;;;14.91;100.00
58761;BME280;44529;47.464;19.014;2023-05-07T06:06:35;100272.09;;;15.01;100.00
58761;BME280;44529;47.464;19.014;2023-05-07T06:09:38;100273.22;;;15.12;99.62
58761;BME280;44529;47.464;19.014;2023-05-07T06:12:40;100275.47;;;15.22;99.96
58761;BME280;44529;47.464;19.014;2023-05-07T06:15:43;100274.56;;;15.30;99.74
58761;BME280;44529;47.464;19.014;2023-05-07T06:18:46;100281.94;;;15.42;99.27
58761;BME280;44529;47.464;19.014;2023-05-07T06:21:50;100280.34;;;15.53;98.32
58761;BME280;44529;47.464;19.014;2023-05-07T06:24:52;100281.34;;;15.61;97.88
58761;BME280;44529;47.464;19.014;2023-05-07T06:27:55;100279.53;;;15.65;97.16
58761;BME280;44529;47.464;19.014;2023-05-07T06:31:13;100275.53;;;15.75;96.85
58761;BME280;44529;47.464;19.014;2023-05-07T06:34:17;100282.66;;;15.91;96.53
58761;BME280;44529;47.464;19.014;2023-05-07T06:37:19;100277.78;;;16.13;95.48
58761;BME280;44529;47.464;19.014;2023-05-07T06:40:22;100273.25;;;16.33;94.85
58761;BME280;44529;47.464;19.014;2023-05-07T06:43:25;100291.78;;;16.55;92.38
58761;BME280;44529;47.464;19.014;2023-05-07T06:46:28;100283.38;;;16.76;86.67
58761;BME280;44529;47.464;19.014;2023-05-07T06:49:31;100281.44;;;17.08;79.46
58761;BME280;44529;47.464;19.014;2023-05-07T06:52:34;100282.97;;;17.25;81.13
58761;BME280;44529;47.464;19.014;2023-05-07T06:55:38;100298.13;;;17.38;82.21
58761;BME280;44529;47.464;19.014;2023-05-07T06:58:41;100289.81;;;17.50;81.28
58761;BME280;44529;47.464;19.014;2023-05-07T07:01:44;100285.78;;;17.64;79.70
58761;BME280;44529;47.464;19.014;2023-05-07T07:04:47;100285.41;;;17.81;77.71
58761;BME280;44529;47.464;19.014;2023-05-07T07:07:49;100288.44;;;17.95;79.73
58761;BME280;44529;47.464;19.014;2023-05-07T07:10:55;100295.16;;;17.98;75.40
58761;BME280;44529;47.464;19.014;2023-05-07T07:13:57;100294.78;;;17.99;77.24
58761;BME280;44529;47.464;19.014;2023-05-07T07:17:03;100300.41;;;18.06;78.31
58761;BME280;44529;47.464;19.014;2023-05-07T07:20:08;100302.91;;;18.15;79.94
58761;BME280;44529;47.464;19.014;2023-05-07T07:23:14;100316.38;;;18.24;80.32
58761;BME280;44529;47.464;19.014;2023-05-07T07:26:17;100318.09;;;18.32;80.34
58761;BME280;44529;47.464;19.014;2023-05-07T07:29:19;100327.75;;;18.45;79.34
58761;BME280;44529;47.464;19.014;2023-05-07T07:32:22;100331.59;;;18.83;74.63
58761;BME280;44529;47.464;19.014;2023-05-07T07:35:25;100321.34;;;19.26;72.84
58761;BME280;44529;47.464;19.014;2023-05-07T07:38:27;100319.66;;;19.70;70.92
58761;BME280;44529;47.464;19.014;2023-05-07T07:41:30;100321.94;;;19.95;68.19
58761;BME280;44529;47.464;19.014;2023-05-07T07:44:33;100328.44;;;19.83;68.30
58761;BME280;44529;47.464;19.014;2023-05-07T07:47:36;100337.28;;;19.99;67.40
58761;BME280;44529;47.464;19.014;2023-05-07T07:50:38;100327.34;;;20.51;66.80
58761;BME280;44529;47.464;19.014;2023-05-07T07:53:47;100332.53;;;21.01;64.51
58761;BME280;44529;47.464;19.014;2023-05-07T07:56:49;100332.47;;;20.94;63.24
58761;BME280;44529;47.464;19.014;2023-05-07T07:59:53;100335.41;;;20.41;64.67
58761;BME280;44529;47.464;19.014;2023-05-07T08:02:55;100333.22;;;20.20;66.25
58761;BME280;44529;47.464;19.014;2023-05-07T08:05:59;100328.91;;;19.89;68.85
58761;BME280;44529;47.464;19.014;2023-05-07T08:09:02;100335.78;;;19.75;71.40
58761;BME280;44529;47.464;19.014;2023-05-07T08:12:06;100336.38;;;19.62;74.09
58761;BME280;44529;47.464;19.014;2023-05-07T08:15:09;100342.94;;;19.57;73.70
58761;BME280;44529;47.464;19.014;2023-05-07T08:18:12;100334.91;;;19.68;74.39
58761;BME280;44529;47.464;19.014;2023-05-07T08:21:14;100330.22;;;19.68;74.27
58761;BME280;44529;47.464;19.014;2023-05-07T08:24:17;100328.16;;;19.62;75.74
58761;BME280;44529;47.464;19.014;2023-05-07T08:27:20;100326.03;;;19.52;77.26
58761;BME280;44529;47.464;19.014;2023-05-07T08:30:23;100329.34;;;19.38;79.45
58761;BME280;44529;47.464;19.014;2023-05-07T08:33:25;100323.44;;;19.36;78.11
58761;BME280;44529;47.464;19.014;2023-05-07T08:36:28;100322.16;;;19.30;81.52
58761;BME280;44529;47.464;19.014;2023-05-07T08:39:30;100319.38;;;19.26;81.08
58761;BME280;44529;47.464;19.014;2023-05-07T08:42:35;100318.53;;;19.22;81.67
58761;BME280;44529;47.464;19.014;2023-05-07T08:45:40;100325.22;;;19.25;80.61
58761;BME280;44529;47.464;19.014;2023-05-07T08:48:44;100324.53;;;19.31;80.01
58761;BME280;44529;47.464;19.014;2023-05-07T08:51:47;100322.81;;;19.46;79.21
58761;BME280;44529;47.464;19.014;2023-05-07T08:54:49;100324.13;;;19.82;77.16
58761;BME280;44529;47.464;19.014;2023-05-07T08:57:52;100331.53;;;19.78;77.16
58761;BME280;44529;47.464;19.014;2023-05-07T09:00:56;100326.00;;;19.74;78.39
58761;BME280;44529;47.464;19.014;2023-05-07T09:03:58;100336.31;;;19.85;78.26
58761;BME280;44529;47.464;19.014;2023-05-07T09:07:02;100326.62;;;19.94;76.06
58761;BME280;44529;47.464;19.014;2023-05-07T09:10:08;100329.63;;;20.46;74.26
58761;BME280;44529;47.464;19.014;2023-05-07T09:13:12;100325.09;;;20.64;73.36
58761;BME280;44529;47.464;19.014;2023-05-07T09:16:20;100331.25;;;20.91;71.08
58761;BME280;44529;47.464;19.014;2023-05-07T09:19:24;100327.03;;;21.56;68.42
58761;BME280;44529;47.464;19.014;2023-05-07T09:22:27;100324.59;;;21.40;69.01
58761;BME280;44529;47.464;19.014;2023-05-07T09:25:32;100326.22;;;21.45;67.29
58761;BME280;44529;47.464;19.014;2023-05-07T09:28:38;100322.72;;;21.55;67.02
58761;BME280;44529;47.464;19.014;2023-05-07T09:31:41;100328.97;;;22.28;66.35
58761;BME280;44529;47.464;19.014;2023-05-07T09:34:44;100331.84;;;22.64;64.18
58761;BME280;44529;47.464;19.014;2023-05-07T09:37:47;100333.78;;;22.53;61.72
58761;BME280;44529;47.464;19.014;2023-05-07T09:41:05;100331.31;;;22.12;62.00
58761;BME280;44529;47.464;19.014;2023-05-07T09:44:08;100320.62;;;22.03;63.87
58761;BME280;44529;47.464;19.014;2023-05-07T09:47:16;100324.09;;;21.93;63.94
58761;BME280;44529;47.464;19.014;2023-05-07T09:50:26;100326.19;;;22.14;62.53
58761;BME280;44529;47.464;19.014;2023-05-07T09:53:30;100327.41;;;22.24;62.36
58761;BME280;44529;47.464;19.014;2023-05-07T09:56:34;100316.28;;;22.06;63.06
58761;BME280;44529;47.464;19.014;2023-05-07T09:59:42;100321.16;;;21.54;65.32
58761;BME280;44529;47.464;19.014;2023-05-07T10:02:48;100322.09;;;21.24;65.16
58761;BME280;44529;47.464;19.014;2023-05-07T10:05:53;100333.75;;;21.10;65.20
58761;BME280;44529;47.464;19.014;2023-05-07T10:08:56;100330.12;;;20.96;65.88
58761;BME280;44529;47.464;19.014;2023-05-07T10:11:59;100332.69;;;20.74;65.69
58761;BME280;44529;47.464;19.014;2023-05-07T10:15:01;100334.25;;;20.75;64.52
58761;BME280;44529;47.464;19.014;2023-05-07T10:18:06;100338.19;;;20.78;65.73
58761;BME280;44529;47.464;19.014;2023-05-07T10:21:20;100338.31;;;20.89;64.14
58761;BME280;44529;47.464;19.014;2023-05-07T10:24:29;100332.75;;;20.85;64.02
58761;BME280;44529;47.464;19.014;2023-05-07T10:27:35;100336.22;;;20.78;64.25
58761;BME280;44529;47.464;19.014;2023-05-07T10:31:08;100336.63;;;20.77;64.42
58761;BME280;44529;47.464;19.014;2023-05-07T10:34:17;100329.44;;;20.65;62.94
58761;BME280;44529;47.464;19.014;2023-05-07T10:37:22;100337.94;;;20.53;61.57
58761;BME280;44529;47.464;19.014;2023-05-07T10:40:25;100336.44;;;20.59;62.85
58761;BME280;44529;47.464;19.014;2023-05-07T10:43:39;100331.66;;;20.52;63.79
58761;BME280;44529;47.464;19.014;2023-05-07T10:47:05;100328.31;;;20.73;63.68
58761;BME280;44529;47.464;19.014;2023-05-07T10:59:31;100323.75;;;21.32;61.71
58761;BME280;44529;47.464;19.014;2023-05-07T11:06:11;100327.88;;;21.60;62.65
58761;BME280;44529;47.464;19.014;2023-05-07T11:09:14;100319.25;;;21.69;60.82
58761;BME280;44529;47.464;19.014;2023-05-07T11:15:40;100317.75;;;21.78;58.06
58761;BME280;44529;47.464;19.014;2023-05-07T11:18:47;100317.00;;;21.85;57.29
58761;BME280;44529;47.464;19.014;2023-05-07T11:21:50;100313.94;;;22.04;55.46
58761;BME280;44529;47.464;19.014;2023-05-07T11:24:54;100314.81;;;22.26;55.15
58761;BME280;44529;47.464;19.014;2023-05-07T11:28:04;100304.25;;;22.50;54.47
58761;BME280;44529;47.464;19.014;2023-05-07T11:31:08;100312.50;;;22.53;53.25
58761;BME280;44529;47.464;19.014;2023-05-07T11:34:11;100318.03;;;22.53;53.21
58761;BME280;44529;47.464;19.014;2023-05-07T11:37:17;100316.47;;;22.56;52.47
58761;BME280;44529;47.464;19.014;2023-05-07T11:40:20;100311.31;;;22.36;53.46
58761;BME280;44529;47.464;19.014;2023-05-07T11:43:23;100319.56;;;22.40;52.92
58761;BME280;44529;47.464;19.014;2023-05-07T11:46:26;100303.06;;;22.51;52.84
58761;BME280;44529;47.464;19.014;2023-05-07T11:49:29;100303.88;;;22.62;50.15
58761;BME280;44529;47.464;19.014;2023-05-07T11:52:32;100301.19;;;22.87;49.82
58761;BME280;44529;47.464;19.014;2023-05-07T11:55:34;100307.06;;;23.28;48.80
58761;BME280;44529;47.464;19.014;2023-05-07T11:58:37;100297.97;;;23.45;48.23
58761;BME280;44529;47.464;19.014;2023-05-07T12:01:39;100295.19;;;23.60;49.76
58761;BME280;44529;47.464;19.014;2023-05-07T12:04:42;100293.97;;;23.61;49.51
58761;BME280;44529;47.464;19.014;2023-05-07T12:07:44;100289.28;;;23.61;48.43
58761;BME280;44529;47.464;19.014;2023-05-07T12:10:48;100285.34;;;23.37;48.09
58761;BME280;44529;47.464;19.014;2023-05-07T12:13:51;100285.72;;;23.50;48.64
58761;BME280;44529;47.464;19.014;2023-05-07T12:16:54;100280.16;;;23.75;47.41
58761;BME280;44529;47.464;19.014;2023-05-07T12:19:56;100277.41;;;23.75;45.76
58761;BME280;44529;47.464;19.014;2023-05-07T12:22:59;100279.41;;;23.71;46.06
58761;BME280;44529;47.464;19.014;2023-05-07T12:26:01;100272.25;;;23.84;45.31
58761;BME280;44529;47.464;19.014;2023-05-07T12:29:08;100274.56;;;23.93;45.12
58761;BME280;44529;47.464;19.014;2023-05-07T12:32:15;100270.53;;;24.12;44.31
58761;BME280;44529;47.464;19.014;2023-05-07T12:35:47;100278.44;;;24.10;43.39
58761;BME280;44529;47.464;19.014;2023-05-07T12:38:49;100273.28;;;24.12;41.41
58761;BME280;44529;47.464;19.014;2023-05-07T12:41:55;100265.78;;;24.09;42.49
58761;BME280;44529;47.464;19.014;2023-05-07T12:44:58;100265.41;;;24.10;44.65
58761;BME280;44529;47.464;19.014;2023-05-07T12:48:01;100274.16;;;23.98;45.32
58761;BME280;44529;47.464;19.014;2023-05-07T12:51:05;100269.44;;;23.91;44.64
58761;BME280;44529;47.464;19.014;2023-05-07T12:54:08;100270.28;;;23.85;44.42
58761;BME280;44529;47.464;19.014;2023-05-07T12:57:11;100267.06;;;23.93;45.46
58761;BME280;44529;47.464;19.014;2023-05-07T13:00:14;100266.56;;;24.13;45.88
58761;BME280;44529;47.464;19.014;2023-05-07T13:03:27;100270.09;;;24.20;44.37
58761;BME280;44529;47.464;19.014;2023-05-07T13:06:30;100262.66;;;24.10;42.70
58761;BME280;44529;47.464;19.014;2023-05-07T13:09:33;100256.03;;;23.93;44.02
58761;BME280;44529;47.464;19.014;2023-05-07T13:12:35;100262.78;;;23.82;44.37
58761;BME280;44529;47.464;19.014;2023-05-07T13:15:38;100259.59;;;23.90;44.59
58761;BME280;44529;47.464;19.014;2023-05-07T13:18:40;100262.75;;;23.89;44.19
58761;BME280;44529;47.464;19.014;2023-05-07T13:21:45;100254.41;;;23.99;43.99
58761;BME280;44529;47.464;19.014;2023-05-07T13:24:48;100245.25;;;24.13;43.81
58761;BME280;44529;47.464;19.014;2023-05-07T13:27:50;100257.50;;;24.16;44.29
58761;BME280;44529;47.464;19.014;2023-05-07T13:31:08;100239.72;;;24.17;43.37
58761;BME280;44529;47.464;19.014;2023-05-07T13:34:10;100254.00;;;24.01;45.39
58761;BME280;44529;47.464;19.014;2023-05-07T13:37:13;100254.81;;;23.98;44.09
58761;BME280;44529;47.464;19.014;2023-05-07T13:40:15;100250.41;;;24.08;43.42
58761;BME280;44529;47.464;19.014;2023-05-07T13:43:18;100242.91;;;24.08;43.28
58761;BME280;44529;47.464;19.014;2023-05-07T13:46:21;100235.19;;;23.78;43.74
58761;BME280;44529;47.464;19.014;2023-05-07T13:49:24;100243.47;;;23.78;42.19
58761;BME280;44529;47.464;19.014;2023-05-07T13:52:26;100235.22;;;23.71;42.16
58761;BME280;44529;47.464;19.014;2023-05-07T13:55:29;100235.22;;;23.71;42.92
58761;BME280;44529;47.464;19.014;2023-05-07T13:58:31;100241.53;;;23.68;43.96
58761;BME280;44529;47.464;19.014;2023-05-07T14:01:34;100245.47;;;23.70;43.84
58761;BME280;44529;47.464;19.014;2023-05-07T14:04:37;100231.69;;;23.67;43.43
58761;BME280;44529;47.464;19.014;2023-05-07T14:07:39;100226.56;;;23.58;44.72
58761;BME280;44529;47.464;19.014;2023-05-07T14:10:42;100232.88;;;23.66;44.35
58761;BME280;44529;47.464;19.014;2023-05-07T14:13:45;100213.09;;;23.74;44.71
58761;BME280;44529;47.464;19.014;2023-05-07T14:16:47;100231.31;;;23.43;43.65
58761;BME280;44529;47.464;19.014;2023-05-07T14:19:53;100231.75;;;23.31;43.14
58761;BME280;44529;47.464;19.014;2023-05-07T14:22:56;100239.25;;;23.31;43.29
58761;BME280;44529;47.464;19.014;2023-05-07T14:25:59;100236.09;;;23.39;42.47
58761;BME280;44529;47.464;19.014;2023-05-07T14:29:02;100242.00;;;23.34;41.55
58761;BME280;44529;47.464;19.014;2023-05-07T14:32:04;100235.31;;;23.28;42.59
58761;BME280;44529;47.464;19.014;2023-05-07T14:35:08;100240.03;;;23.35;42.90
58761;BME280;44529;47.464;19.014;2023-05-07T14:38:10;100249.50;;;23.44;42.58
58761;BME280;44529;47.464;19.014;2023-05-07T14:41:13;100242.41;;;23.29;43.02
58761;BME280;44529;47.464;19.014;2023-05-07T14:44:15;100253.84;;;23.24;42.26
58761;BME280;44529;47.464;19.014;2023-05-07T14:47:17;100243.22;;;23.22;42.02
58761;BME280;44529;47.464;19.014;2023-05-07T14:50:21;100241.28;;;23.12;42.72
58761;BME280;44529;47.464;19.014;2023-05-07T14:53:23;100248.00;;;22.93;44.77
58761;BME280;44529;47.464;19.014;2023-05-07T14:56:25;100252.72;;;23.00;44.75
58761;BME280;44529;47.464;19.014;2023-05-07T14:59:28;100243.28;;;22.87;43.34
58761;BME280;44529;47.464;19.014;2023-05-07T15:02:30;100250.75;;;22.86;44.36
58761;BME280;44529;47.464;19.014;2023-05-07T15:05:33;100247.97;;;22.83;44.69
58761;BME280;44529;47.464;19.014;2023-05-07T15:08:35;100247.59;;;22.88;44.76
58761;BME280;44529;47.464;19.014;2023-05-07T15:11:37;100244.06;;;22.87;44.91
58761;BME280;44529;47.464;19.014;2023-05-07T15:14:41;100247.59;;;22.88;45.21
58761;BME280;44529;47.464;19.014;2023-05-07T15:17:43;100261.37;;;22.91;44.76
58761;BME280;44529;47.464;19.014;2023-05-07T15:20:45;100252.31;;;22.80;45.50
58761;BME280;44529;47.464;19.014;2023-05-07T15:23:48;100247.56;;;22.77;46.33
58761;BME280;44529;47.464;19.014;2023-05-07T15:26:52;100252.69;;;22.75;47.18
58761;BME280;44529;47.464;19.014;2023-05-07T15:29:54;100253.50;;;22.76;47.95
58761;BME280;44529;47.464;19.014;2023-05-07T15:32:56;100260.16;;;22.78;48.07
58761;BME280;44529;47.464;19.014;2023-05-07T15:35:59;100256.22;;;22.65;47.77
58761;BME280;44529;47.464;19.014;2023-05-07T15:39:02;100257.03;;;22.69;47.03
58761;BME280;44529;47.464;19.014;2023-05-07T15:42:06;100257.41;;;22.60;46.94
58761;BME280;44529;47.464;19.014;2023-05-07T15:45:09;100250.31;;;22.52;45.94
58761;BME280;44529;47.464;19.014;2023-05-07T15:48:12;100253.47;;;22.54;45.04
58761;BME280;44529;47.464;19.014;2023-05-07T15:51:14;100264.47;;;22.36;45.52
58761;BME280;44529;47.464;19.014;2023-05-07T15:54:17;100255.41;;;22.29;45.86
58761;BME280;44529;47.464;19.014;2023-05-07T15:57:22;100255.41;;;22.25;45.28